sensor_id;sensor_type;location;lat;lon;timestamp;P1;durP1;ratioP1;P2;durP2;ratioP2
66421;SDS011;53228;51.380;0.098;2023-09-08T00:00:51;15.45;;;8.65;;
66421;SDS011;53228;51.380;0.098;2023-09-08T00:03:18;10.68;;;8.50;;
66421;SDS011;53228;51.380;0.098;2023-09-08T00:05:49;13.23;;;8.55;;
66421;SDS011;53228;51.380;0.098;2023-09-08T00:08:17;13.80;;;9.43;;
66421;SDS011;53228;51.380;0.098;2023-09-08T00:10:44;11.27;;;8.82;;
66421;SDS011;53228;51.380;0.098;2023-09-08T00:13:13;13.77;;;9.07;;
66421;SDS011;53228;51.380;0.098;2023-09-08T00:15:40;11.70;;;8.60;;
66421;SDS011;53228;51.380;0.098;2023-09-08T00:18:08;11.70;;;8.15;;
66421;SDS011;53228;51.380;0.098;2023-09-08T00:20:36;17.25;;;9.52;;
66421;SDS011;53228;51.380;0.098;2023-09-08T00:23:03;15.18;;;8.88;;
66421;SDS011;53228;51.380;0.098;2023-09-08T00:25:31;11.40;;;9.32;;
66421;SDS011;53228;51.380;0.098;2023-09-08T00:27:59;15.63;;;9.70;;
66421;SDS011;53228;51.380;0.098;2023-09-08T00:30:26;16.20;;;10.23;;
66421;SDS011;53228;51.380;0.098;2023-09-08T00:32:54;15.93;;;10.90;;
66421;SDS011;53228;51.380;0.098;2023-09-08T00:35:22;16.55;;;10.32;;
66421;SDS011;53228;51.380;0.098;2023-09-08T00:37:50;16.77;;;10.57;;
66421;SDS011;53228;51.380;0.098;2023-09-08T00:40:17;16.33;;;11.05;;
66421;SDS011;53228;51.380;0.098;2023-09-08T00:42:45;15.77;;;11.27;;
66421;SDS011;53228;51.380;0.098;2023-09-08T00:45:14;13.60;;;10.35;;
66421;SDS011;53228;51.380;0.098;2023-09-08T00:47:41;19.85;;;10.57;;
66421;SDS011;53228;51.380;0.098;2023-09-08T00:50:09;15.38;;;10.32;;
66421;SDS011;53228;51.380;0.098;2023-09-08T00:52:38;14.88;;;10.85;;
66421;SDS011;53228;51.380;0.098;2023-09-08T00:55:06;17.17;;;11.48;;
66421;SDS011;53228;51.380;0.098;2023-09-08T00:57:34;16.27;;;11.18;;
66421;SDS011;53228;51.380;0.098;2023-09-08T01:00:02;20.08;;;12.35;;
66421;SDS011;53228;51.380;0.098;2023-09-08T01:02:33;15.38;;;11.32;;
66421;SDS011;53228;51.380;0.098;2023-09-08T01:05:01;17.85;;;11.75;;
66421;SDS011;53228;51.380;0.098;2023-09-08T01:07:29;15.55;;;11.35;;
66421;SDS011;53228;51.380;0.098;2023-09-08T01:09:58;16.92;;;12.15;;
66421;SDS011;53228;51.380;0.098;2023-09-08T01:12:31;17.25;;;12.55;;
66421;SDS011;53228;51.380;0.098;2023-09-08T01:15:00;20.92;;;12.27;;
66421;SDS011;53228;51.380;0.098;2023-09-08T01:17:29;20.45;;;12.63;;
66421;SDS011;53228;51.380;0.098;2023-09-08T01:19:59;19.27;;;13.23;;
66421;SDS011;53228;51.380;0.098;2023-09-08T01:25:27;22.17;;;12.80;;
66421;SDS011;53228;51.380;0.098;2023-09-08T01:28:00;18.38;;;12.75;;
66421;SDS011;53228;51.380;0.098;2023-09-08T01:30:29;20.05;;;11.93;;
66421;SDS011;53228;51.380;0.098;2023-09-08T01:33:00;17.80;;;12.20;;
66421;SDS011;53228;51.380;0.098;2023-09-08T01:35:29;18.17;;;12.18;;
66421;SDS011;53228;51.380;0.098;2023-09-08T01:37:59;18.80;;;12.65;;
66421;SDS011;53228;51.380;0.098;2023-09-08T01:40:27;17.60;;;11.88;;
66421;SDS011;53228;51.380;0.098;2023-09-08T01:42:54;19.35;;;13.10;;
66421;SDS011;53228;51.380;0.098;2023-09-08T01:45:22;20.48;;;12.50;;
66421;SDS011;53228;51.380;0.098;2023-09-08T01:47:50;21.05;;;12.15;;
66421;SDS011;53228;51.380;0.098;2023-09-08T01:50:17;18.42;;;11.77;;
66421;SDS011;53228;51.380;0.098;2023-09-08T01:52:49;19.05;;;12.27;;
66421;SDS011;53228;51.380;0.098;2023-09-08T01:55:16;19.40;;;12.27;;
66421;SDS011;53228;51.380;0.098;2023-09-08T01:57:45;20.10;;;12.85;;
66421;SDS011;53228;51.380;0.098;2023-09-08T02:00:13;18.67;;;12.43;;
66421;SDS011;53228;51.380;0.098;2023-09-08T02:02:41;17.25;;;11.23;;
66421;SDS011;53228;51.380;0.098;2023-09-08T02:05:09;17.05;;;10.80;;
66421;SDS011;53228;51.380;0.098;2023-09-08T02:07:37;19.15;;;11.93;;
66421;SDS011;53228;51.380;0.098;2023-09-08T02:10:05;15.43;;;11.88;;
66421;SDS011;53228;51.380;0.098;2023-09-08T02:12:32;18.65;;;12.35;;
66421;SDS011;53228;51.380;0.098;2023-09-08T02:15:00;17.33;;;11.65;;
66421;SDS011;53228;51.380;0.098;2023-09-08T02:17:29;19.58;;;12.95;;
66421;SDS011;53228;51.380;0.098;2023-09-08T02:19:57;18.00;;;12.65;;
66421;SDS011;53228;51.380;0.098;2023-09-08T02:22:25;19.85;;;12.93;;
66421;SDS011;53228;51.380;0.098;2023-09-08T02:24:52;18.25;;;12.35;;
66421;SDS011;53228;51.380;0.098;2023-09-08T02:27:20;18.45;;;13.02;;
66421;SDS011;53228;51.380;0.098;2023-09-08T02:29:50;24.08;;;13.23;;
66421;SDS011;53228;51.380;0.098;2023-09-08T02:32:18;23.63;;;14.15;;
66421;SDS011;53228;51.380;0.098;2023-09-08T02:34:45;19.20;;;12.48;;
66421;SDS011;53228;51.380;0.098;2023-09-08T02:37:15;18.80;;;13.10;;
66421;SDS011;53228;51.380;0.098;2023-09-08T02:39:43;20.38;;;13.88;;
66421;SDS011;53228;51.380;0.098;2023-09-08T02:42:11;19.05;;;12.50;;
66421;SDS011;53228;51.380;0.098;2023-09-08T02:44:38;17.85;;;12.98;;
66421;SDS011;53228;51.380;0.098;2023-09-08T02:47:06;19.33;;;14.27;;
66421;SDS011;53228;51.380;0.098;2023-09-08T02:49:36;21.25;;;13.32;;
66421;SDS011;53228;51.380;0.098;2023-09-08T02:52:04;21.67;;;14.20;;
66421;SDS011;53228;51.380;0.098;2023-09-08T02:54:32;22.42;;;14.02;;
66421;SDS011;53228;51.380;0.098;2023-09-08T02:57:00;23.92;;;15.38;;
66421;SDS011;53228;51.380;0.098;2023-09-08T02:59:27;24.98;;;15.18;;
66421;SDS011;53228;51.380;0.098;2023-09-08T03:01:55;26.98;;;15.05;;
66421;SDS011;53228;51.380;0.098;2023-09-08T03:04:23;25.25;;;15.15;;
66421;SDS011;53228;51.380;0.098;2023-09-08T03:06:52;20.35;;;13.63;;
66421;SDS011;53228;51.380;0.098;2023-09-08T03:09:20;21.73;;;14.43;;
66421;SDS011;53228;51.380;0.098;2023-09-08T03:11:47;21.60;;;14.32;;
66421;SDS011;53228;51.380;0.098;2023-09-08T03:14:15;27.27;;;15.05;;
66421;SDS011;53228;51.380;0.098;2023-09-08T03:16:43;20.45;;;14.40;;
66421;SDS011;53228;51.380;0.098;2023-09-08T03:19:11;29.67;;;15.65;;
66421;SDS011;53228;51.380;0.098;2023-09-08T03:21:38;26.95;;;15.50;;
66421;SDS011;53228;51.380;0.098;2023-09-08T03:24:06;26.90;;;16.15;;
66421;SDS011;53228;51.380;0.098;2023-09-08T03:26:34;25.20;;;16.02;;
66421;SDS011;53228;51.380;0.098;2023-09-08T03:29:01;23.17;;;15.35;;
66421;SDS011;53228;51.380;0.098;2023-09-08T03:31:31;26.23;;;16.95;;
66421;SDS011;53228;51.380;0.098;2023-09-08T03:33:59;26.55;;;15.80;;
66421;SDS011;53228;51.380;0.098;2023-09-08T03:36:27;28.88;;;17.48;;
66421;SDS011;53228;51.380;0.098;2023-09-08T03:38:56;30.20;;;17.67;;
66421;SDS011;53228;51.380;0.098;2023-09-08T03:41:25;28.17;;;16.02;;
66421;SDS011;53228;51.380;0.098;2023-09-08T03:43:53;26.35;;;16.10;;
66421;SDS011;53228;51.380;0.098;2023-09-08T03:46:21;25.65;;;17.00;;
66421;SDS011;53228;51.380;0.098;2023-09-08T03:48:49;28.52;;;17.25;;
66421;SDS011;53228;51.380;0.098;2023-09-08T03:51:16;28.35;;;18.33;;
66421;SDS011;53228;51.380;0.098;2023-09-08T03:53:45;27.45;;;16.75;;
66421;SDS011;53228;51.380;0.098;2023-09-08T03:56:13;32.33;;;18.80;;
66421;SDS011;53228;51.380;0.098;2023-09-08T03:58:40;29.23;;;18.00;;
66421;SDS011;53228;51.380;0.098;2023-09-08T04:01:08;33.95;;;19.38;;
66421;SDS011;53228;51.380;0.098;2023-09-08T04:03:36;30.73;;;18.25;;
66421;SDS011;53228;51.380;0.098;2023-09-08T04:06:04;34.17;;;20.02;;
66421;SDS011;53228;51.380;0.098;2023-09-08T04:08:32;33.97;;;20.38;;
66421;SDS011;53228;51.380;0.098;2023-09-08T04:11:00;31.83;;;18.80;;
66421;SDS011;53228;51.380;0.098;2023-09-08T04:13:28;32.00;;;19.63;;
66421;SDS011;53228;51.380;0.098;2023-09-08T04:15:55;35.85;;;19.42;;
66421;SDS011;53228;51.380;0.098;2023-09-08T04:18:25;33.67;;;19.88;;
66421;SDS011;53228;51.380;0.098;2023-09-08T04:20:53;34.13;;;20.20;;
66421;SDS011;53228;51.380;0.098;2023-09-08T04:23:20;33.13;;;20.40;;
66421;SDS011;53228;51.380;0.098;2023-09-08T04:25:48;31.77;;;19.17;;
66421;SDS011;53228;51.380;0.098;2023-09-08T04:28:16;36.63;;;21.02;;
66421;SDS011;53228;51.380;0.098;2023-09-08T04:30:43;36.33;;;21.90;;
66421;SDS011;53228;51.380;0.098;2023-09-08T04:33:11;37.92;;;21.65;;
66421;SDS011;53228;51.380;0.098;2023-09-08T04:35:39;35.63;;;21.02;;
66421;SDS011;53228;51.380;0.098;2023-09-08T04:38:07;36.13;;;20.13;;
66421;SDS011;53228;51.380;0.098;2023-09-08T04:40:35;31.02;;;19.40;;
66421;SDS011;53228;51.380;0.098;2023-09-08T04:43:03;31.33;;;19.45;;
66421;SDS011;53228;51.380;0.098;2023-09-08T04:45:31;32.30;;;19.58;;
66421;SDS011;53228;51.380;0.098;2023-09-08T04:47:59;32.92;;;20.88;;
66421;SDS011;53228;51.380;0.098;2023-09-08T04:50:26;36.28;;;20.75;;
66421;SDS011;53228;51.380;0.098;2023-09-08T04:52:55;36.83;;;21.02;;
66421;SDS011;53228;51.380;0.098;2023-09-08T04:55:22;39.42;;;22.70;;
66421;SDS011;53228;51.380;0.098;2023-09-08T04:57:50;36.53;;;22.98;;
66421;SDS011;53228;51.380;0.098;2023-09-08T05:00:18;35.17;;;22.15;;
66421;SDS011;53228;51.380;0.098;2023-09-08T05:02:46;36.33;;;22.05;;
66421;SDS011;53228;51.380;0.098;2023-09-08T05:05:14;34.92;;;21.73;;
66421;SDS011;53228;51.380;0.098;2023-09-08T05:07:42;32.90;;;20.63;;
66421;SDS011;53228;51.380;0.098;2023-09-08T05:10:10;34.22;;;21.65;;
66421;SDS011;53228;51.380;0.098;2023-09-08T05:12:38;36.90;;;22.13;;
66421;SDS011;53228;51.380;0.098;2023-09-08T05:15:06;34.88;;;21.00;;
66421;SDS011;53228;51.380;0.098;2023-09-08T05:17:44;34.40;;;20.98;;
66421;SDS011;53228;51.380;0.098;2023-09-08T05:20:13;34.65;;;20.75;;
66421;SDS011;53228;51.380;0.098;2023-09-08T05:22:41;39.92;;;22.83;;
66421;SDS011;53228;51.380;0.098;2023-09-08T05:25:09;35.95;;;21.95;;
66421;SDS011;53228;51.380;0.098;2023-09-08T05:27:38;40.33;;;24.13;;
66421;SDS011;53228;51.380;0.098;2023-09-08T05:30:05;30.80;;;18.42;;
66421;SDS011;53228;51.380;0.098;2023-09-08T05:32:35;35.42;;;22.27;;
66421;SDS011;53228;51.380;0.098;2023-09-08T05:35:03;34.30;;;21.67;;
66421;SDS011;53228;51.380;0.098;2023-09-08T05:37:31;35.35;;;21.95;;
66421;SDS011;53228;51.380;0.098;2023-09-08T05:39:59;36.72;;;23.02;;
66421;SDS011;53228;51.380;0.098;2023-09-08T05:42:27;38.30;;;22.83;;
66421;SDS011;53228;51.380;0.098;2023-09-08T05:44:54;41.60;;;23.27;;
66421;SDS011;53228;51.380;0.098;2023-09-08T05:47:22;43.53;;;25.17;;
66421;SDS011;53228;51.380;0.098;2023-09-08T05:49:50;42.13;;;25.60;;
66421;SDS011;53228;51.380;0.098;2023-09-08T05:52:18;44.95;;;26.10;;
66421;SDS011;53228;51.380;0.098;2023-09-08T05:54:47;41.70;;;25.05;;
66421;SDS011;53228;51.380;0.098;2023-09-08T05:57:15;42.70;;;26.33;;
66421;SDS011;53228;51.380;0.098;2023-09-08T05:59:43;48.30;;;26.50;;
66421;SDS011;53228;51.380;0.098;2023-09-08T06:02:11;44.05;;;25.67;;
66421;SDS011;53228;51.380;0.098;2023-09-08T06:04:38;50.38;;;28.35;;
66421;SDS011;53228;51.380;0.098;2023-09-08T06:07:06;45.53;;;27.88;;
66421;SDS011;53228;51.380;0.098;2023-09-08T06:09:35;42.38;;;25.80;;
66421;SDS011;53228;51.380;0.098;2023-09-08T06:12:03;41.50;;;25.77;;
66421;SDS011;53228;51.380;0.098;2023-09-08T06:14:31;44.17;;;25.80;;
66421;SDS011;53228;51.380;0.098;2023-09-08T06:16:59;43.63;;;25.95;;
66421;SDS011;53228;51.380;0.098;2023-09-08T06:19:26;42.72;;;26.75;;
66421;SDS011;53228;51.380;0.098;2023-09-08T06:21:54;40.55;;;23.25;;
66421;SDS011;53228;51.380;0.098;2023-09-08T06:24:22;38.42;;;23.40;;
66421;SDS011;53228;51.380;0.098;2023-09-08T06:26:51;44.10;;;25.63;;
66421;SDS011;53228;51.380;0.098;2023-09-08T06:29:19;45.22;;;26.50;;
66421;SDS011;53228;51.380;0.098;2023-09-08T06:31:47;43.47;;;27.23;;
66421;SDS011;53228;51.380;0.098;2023-09-08T06:34:15;38.85;;;24.77;;
66421;SDS011;53228;51.380;0.098;2023-09-08T06:36:43;37.80;;;24.50;;
66421;SDS011;53228;51.380;0.098;2023-09-08T06:39:11;43.88;;;24.25;;
66421;SDS011;53228;51.380;0.098;2023-09-08T06:41:40;46.42;;;28.10;;
66421;SDS011;53228;51.380;0.098;2023-09-08T06:44:10;44.05;;;27.25;;
66421;SDS011;53228;51.380;0.098;2023-09-08T06:46:38;53.67;;;28.65;;
66421;SDS011;53228;51.380;0.098;2023-09-08T06:49:06;51.10;;;28.65;;
66421;SDS011;53228;51.380;0.098;2023-09-08T06:51:34;49.88;;;30.52;;
66421;SDS011;53228;51.380;0.098;2023-09-08T06:54:02;51.92;;;28.48;;
66421;SDS011;53228;51.380;0.098;2023-09-08T06:56:36;55.42;;;30.17;;
66421;SDS011;53228;51.380;0.098;2023-09-08T06:59:06;46.72;;;29.17;;
66421;SDS011;53228;51.380;0.098;2023-09-08T07:01:34;53.70;;;28.95;;
66421;SDS011;53228;51.380;0.098;2023-09-08T07:04:03;63.45;;;35.92;;
66421;SDS011;53228;51.380;0.098;2023-09-08T07:06:31;61.83;;;36.28;;
66421;SDS011;53228;51.380;0.098;2023-09-08T07:08:59;65.03;;;35.17;;
66421;SDS011;53228;51.380;0.098;2023-09-08T07:11:28;67.20;;;37.75;;
66421;SDS011;53228;51.380;0.098;2023-09-08T07:13:56;68.22;;;39.25;;
66421;SDS011;53228;51.380;0.098;2023-09-08T07:16:24;69.43;;;38.78;;
66421;SDS011;53228;51.380;0.098;2023-09-08T07:18:52;79.32;;;40.95;;
66421;SDS011;53228;51.380;0.098;2023-09-08T07:21:19;77.70;;;41.90;;
66421;SDS011;53228;51.380;0.098;2023-09-08T07:23:47;75.35;;;41.45;;
66421;SDS011;53228;51.380;0.098;2023-09-08T07:26:15;75.07;;;40.65;;
66421;SDS011;53228;51.380;0.098;2023-09-08T07:28:44;75.10;;;41.72;;
66421;SDS011;53228;51.380;0.098;2023-09-08T07:31:14;74.97;;;42.15;;
66421;SDS011;53228;51.380;0.098;2023-09-08T07:33:44;75.55;;;42.58;;
66421;SDS011;53228;51.380;0.098;2023-09-08T07:36:13;75.47;;;43.40;;
66421;SDS011;53228;51.380;0.098;2023-09-08T07:38:42;76.63;;;43.78;;
66421;SDS011;53228;51.380;0.098;2023-09-08T07:41:10;75.93;;;45.25;;
66421;SDS011;53228;51.380;0.098;2023-09-08T07:43:39;78.88;;;44.42;;
66421;SDS011;53228;51.380;0.098;2023-09-08T07:46:10;72.63;;;42.15;;
66421;SDS011;53228;51.380;0.098;2023-09-08T07:48:38;73.97;;;41.40;;
66421;SDS011;53228;51.380;0.098;2023-09-08T07:51:06;73.63;;;41.28;;
66421;SDS011;53228;51.380;0.098;2023-09-08T07:53:34;75.35;;;40.92;;
66421;SDS011;53228;51.380;0.098;2023-09-08T07:56:02;71.25;;;40.65;;
66421;SDS011;53228;51.380;0.098;2023-09-08T07:58:31;66.80;;;40.30;;
66421;SDS011;53228;51.380;0.098;2023-09-08T08:01:00;71.63;;;40.42;;
66421;SDS011;53228;51.380;0.098;2023-09-08T08:03:28;69.32;;;39.30;;
66421;SDS011;53228;51.380;0.098;2023-09-08T08:05:56;61.83;;;37.13;;
66421;SDS011;53228;51.380;0.098;2023-09-08T08:08:25;67.63;;;39.53;;
66421;SDS011;53228;51.380;0.098;2023-09-08T08:10:53;65.28;;;37.20;;
66421;SDS011;53228;51.380;0.098;2023-09-08T08:13:20;62.00;;;35.38;;
66421;SDS011;53228;51.380;0.098;2023-09-08T08:15:48;66.90;;;38.72;;
66421;SDS011;53228;51.380;0.098;2023-09-08T08:18:16;62.65;;;36.70;;
66421;SDS011;53228;51.380;0.098;2023-09-08T08:20:45;61.38;;;37.67;;
66421;SDS011;53228;51.380;0.098;2023-09-08T08:23:13;63.05;;;36.97;;
66421;SDS011;53228;51.380;0.098;2023-09-08T08:25:41;58.50;;;34.92;;
66421;SDS011;53228;51.380;0.098;2023-09-08T08:28:09;57.10;;;35.70;;
66421;SDS011;53228;51.380;0.098;2023-09-08T08:30:37;63.05;;;36.50;;
66421;SDS011;53228;51.380;0.098;2023-09-08T08:33:04;59.13;;;35.22;;
66421;SDS011;53228;51.380;0.098;2023-09-08T08:35:32;62.90;;;35.60;;
66421;SDS011;53228;51.380;0.098;2023-09-08T08:38:00;65.95;;;36.03;;
66421;SDS011;53228;51.380;0.098;2023-09-08T08:40:27;61.70;;;36.60;;
66421;SDS011;53228;51.380;0.098;2023-09-08T08:42:56;61.35;;;34.17;;
66421;SDS011;53228;51.380;0.098;2023-09-08T08:45:28;58.47;;;34.08;;
66421;SDS011;53228;51.380;0.098;2023-09-08T08:47:57;67.82;;;38.03;;
66421;SDS011;53228;51.380;0.098;2023-09-08T08:50:25;60.65;;;35.25;;
66421;SDS011;53228;51.380;0.098;2023-09-08T08:52:54;64.05;;;39.15;;
66421;SDS011;53228;51.380;0.098;2023-09-08T08:55:22;51.63;;;31.90;;
66421;SDS011;53228;51.380;0.098;2023-09-08T08:57:54;50.70;;;31.45;;
66421;SDS011;53228;51.380;0.098;2023-09-08T09:00:29;48.20;;;29.85;;
66421;SDS011;53228;51.380;0.098;2023-09-08T09:03:01;50.15;;;30.48;;
66421;SDS011;53228;51.380;0.098;2023-09-08T09:05:41;45.38;;;28.15;;
66421;SDS011;53228;51.380;0.098;2023-09-08T09:08:15;46.30;;;28.52;;
66421;SDS011;53228;51.380;0.098;2023-09-08T09:10:43;47.30;;;28.00;;
66421;SDS011;53228;51.380;0.098;2023-09-08T09:13:11;47.83;;;28.08;;
66421;SDS011;53228;51.380;0.098;2023-09-08T09:15:38;41.10;;;25.80;;
66421;SDS011;53228;51.380;0.098;2023-09-08T09:18:07;43.92;;;27.88;;
66421;SDS011;53228;51.380;0.098;2023-09-08T09:20:35;45.72;;;27.30;;
66421;SDS011;53228;51.380;0.098;2023-09-08T09:23:03;41.20;;;27.15;;
66421;SDS011;53228;51.380;0.098;2023-09-08T09:25:31;40.28;;;25.35;;
66421;SDS011;53228;51.380;0.098;2023-09-08T09:28:00;43.45;;;27.67;;
66421;SDS011;53228;51.380;0.098;2023-09-08T09:30:45;41.00;;;26.27;;
66421;SDS011;53228;51.380;0.098;2023-09-08T09:33:15;42.30;;;26.70;;
66421;SDS011;53228;51.380;0.098;2023-09-08T09:35:51;39.08;;;25.63;;
66421;SDS011;53228;51.380;0.098;2023-09-08T09:38:20;39.13;;;24.33;;
66421;SDS011;53228;51.380;0.098;2023-09-08T09:40:49;40.92;;;27.00;;
66421;SDS011;53228;51.380;0.098;2023-09-08T09:43:17;41.35;;;27.05;;
66421;SDS011;53228;51.380;0.098;2023-09-08T09:45:48;40.83;;;26.42;;
66421;SDS011;53228;51.380;0.098;2023-09-08T09:48:16;40.63;;;26.45;;
66421;SDS011;53228;51.380;0.098;2023-09-08T09:50:47;39.85;;;26.48;;
66421;SDS011;53228;51.380;0.098;2023-09-08T09:53:16;38.60;;;25.08;;
66421;SDS011;53228;51.380;0.098;2023-09-08T09:55:45;37.63;;;24.88;;
66421;SDS011;53228;51.380;0.098;2023-09-08T09:58:13;40.55;;;26.83;;
66421;SDS011;53228;51.380;0.098;2023-09-08T10:00:42;38.28;;;25.05;;
66421;SDS011;53228;51.380;0.098;2023-09-08T10:03:16;41.33;;;24.45;;
66421;SDS011;53228;51.380;0.098;2023-09-08T10:05:45;35.22;;;24.83;;
66421;SDS011;53228;51.380;0.098;2023-09-08T10:10:43;37.28;;;24.45;;
66421;SDS011;53228;51.380;0.098;2023-09-08T10:13:13;40.42;;;26.50;;
66421;SDS011;53228;51.380;0.098;2023-09-08T10:15:45;36.83;;;25.20;;
66421;SDS011;53228;51.380;0.098;2023-09-08T10:18:16;35.53;;;25.45;;
66421;SDS011;53228;51.380;0.098;2023-09-08T10:20:48;38.90;;;24.73;;
66421;SDS011;53228;51.380;0.098;2023-09-08T10:23:31;39.42;;;26.65;;
66421;SDS011;53228;51.380;0.098;2023-09-08T10:26:05;41.60;;;27.48;;
66421;SDS011;53228;51.380;0.098;2023-09-08T10:28:36;47.13;;;26.45;;
66421;SDS011;53228;51.380;0.098;2023-09-08T10:31:05;43.85;;;27.40;;
66421;SDS011;53228;51.380;0.098;2023-09-08T10:36:03;37.83;;;25.08;;
66421;SDS011;53228;51.380;0.098;2023-09-08T10:44:04;38.85;;;25.27;;
66421;SDS011;53228;51.380;0.098;2023-09-08T10:46:35;41.10;;;26.77;;
66421;SDS011;53228;51.380;0.098;2023-09-08T10:49:04;39.88;;;27.13;;
66421;SDS011;53228;51.380;0.098;2023-09-08T10:51:35;40.65;;;26.50;;
66421;SDS011;53228;51.380;0.098;2023-09-08T10:54:03;41.30;;;27.17;;
66421;SDS011;53228;51.380;0.098;2023-09-08T10:56:46;41.60;;;27.17;;
66421;SDS011;53228;51.380;0.098;2023-09-08T10:59:21;43.63;;;27.05;;
66421;SDS011;53228;51.380;0.098;2023-09-08T11:01:55;39.20;;;25.33;;
66421;SDS011;53228;51.380;0.098;2023-09-08T11:04:23;40.92;;;26.50;;
66421;SDS011;53228;51.380;0.098;2023-09-08T11:06:52;39.85;;;27.80;;
66421;SDS011;53228;51.380;0.098;2023-09-08T11:09:22;39.20;;;27.00;;
66421;SDS011;53228;51.380;0.098;2023-09-08T11:11:50;41.83;;;27.77;;
66421;SDS011;53228;51.380;0.098;2023-09-08T11:14:18;40.45;;;27.27;;
66421;SDS011;53228;51.380;0.098;2023-09-08T11:16:46;38.75;;;26.58;;
66421;SDS011;53228;51.380;0.098;2023-09-08T11:19:14;39.60;;;25.08;;
66421;SDS011;53228;51.380;0.098;2023-09-08T11:21:42;34.22;;;23.73;;
66421;SDS011;53228;51.380;0.098;2023-09-08T11:24:11;34.72;;;24.45;;
66421;SDS011;53228;51.380;0.098;2023-09-08T11:26:42;35.55;;;25.77;;
66421;SDS011;53228;51.380;0.098;2023-09-08T11:29:13;35.42;;;24.58;;
66421;SDS011;53228;51.380;0.098;2023-09-08T11:31:41;31.95;;;23.77;;
66421;SDS011;53228;51.380;0.098;2023-09-08T11:34:11;35.53;;;22.40;;
66421;SDS011;53228;51.380;0.098;2023-09-08T11:36:40;31.63;;;21.98;;
66421;SDS011;53228;51.380;0.098;2023-09-08T11:39:09;29.40;;;21.63;;
66421;SDS011;53228;51.380;0.098;2023-09-08T11:41:37;32.72;;;23.38;;
66421;SDS011;53228;51.380;0.098;2023-09-08T11:44:05;32.35;;;21.80;;
66421;SDS011;53228;51.380;0.098;2023-09-08T11:46:33;28.17;;;20.88;;
66421;SDS011;53228;51.380;0.098;2023-09-08T11:49:01;28.48;;;21.05;;
66421;SDS011;53228;51.380;0.098;2023-09-08T11:51:31;31.27;;;21.95;;
66421;SDS011;53228;51.380;0.098;2023-09-08T11:53:59;28.30;;;21.13;;
66421;SDS011;53228;51.380;0.098;2023-09-08T11:56:27;31.42;;;20.58;;
66421;SDS011;53228;51.380;0.098;2023-09-08T11:58:55;31.15;;;22.13;;
66421;SDS011;53228;51.380;0.098;2023-09-08T12:01:23;25.58;;;18.85;;
66421;SDS011;53228;51.380;0.098;2023-09-08T12:03:52;24.08;;;19.60;;
66421;SDS011;53228;51.380;0.098;2023-09-08T12:06:27;26.85;;;18.08;;
66421;SDS011;53228;51.380;0.098;2023-09-08T12:08:56;26.40;;;19.15;;
66421;SDS011;53228;51.380;0.098;2023-09-08T12:11:33;26.25;;;18.60;;
66421;SDS011;53228;51.380;0.098;2023-09-08T12:14:06;28.67;;;20.27;;
66421;SDS011;53228;51.380;0.098;2023-09-08T12:16:35;36.20;;;23.63;;
66421;SDS011;53228;51.380;0.098;2023-09-08T12:19:02;28.15;;;19.40;;
66421;SDS011;53228;51.380;0.098;2023-09-08T12:21:35;33.42;;;21.55;;
66421;SDS011;53228;51.380;0.098;2023-09-08T12:24:45;28.88;;;21.02;;
66421;SDS011;53228;51.380;0.098;2023-09-08T12:27:16;29.48;;;22.13;;
66421;SDS011;53228;51.380;0.098;2023-09-08T12:29:52;32.88;;;22.15;;
66421;SDS011;53228;51.380;0.098;2023-09-08T12:32:20;35.55;;;24.13;;
66421;SDS011;53228;51.380;0.098;2023-09-08T12:34:48;29.45;;;21.05;;
66421;SDS011;53228;51.380;0.098;2023-09-08T12:37:23;31.92;;;22.10;;
66421;SDS011;53228;51.380;0.098;2023-09-08T12:39:52;28.05;;;21.30;;
66421;SDS011;53228;51.380;0.098;2023-09-08T12:42:19;32.63;;;20.50;;
66421;SDS011;53228;51.380;0.098;2023-09-08T12:44:47;27.95;;;18.23;;
66421;SDS011;53228;51.380;0.098;2023-09-08T12:47:15;22.20;;;16.80;;
66421;SDS011;53228;51.380;0.098;2023-09-08T12:49:43;24.70;;;17.25;;
66421;SDS011;53228;51.380;0.098;2023-09-08T12:52:10;27.45;;;17.40;;
66421;SDS011;53228;51.380;0.098;2023-09-08T12:54:38;25.25;;;18.50;;
66421;SDS011;53228;51.380;0.098;2023-09-08T12:57:06;22.40;;;17.02;;
66421;SDS011;53228;51.380;0.098;2023-09-08T12:59:34;23.77;;;16.98;;
66421;SDS011;53228;51.380;0.098;2023-09-08T13:02:01;27.42;;;18.90;;
66421;SDS011;53228;51.380;0.098;2023-09-08T13:04:29;24.83;;;17.27;;
66421;SDS011;53228;51.380;0.098;2023-09-08T13:06:56;21.30;;;15.90;;
66421;SDS011;53228;51.380;0.098;2023-09-08T13:09:25;20.60;;;15.90;;
66421;SDS011;53228;51.380;0.098;2023-09-08T13:11:53;23.08;;;15.40;;
66421;SDS011;53228;51.380;0.098;2023-09-08T13:14:20;21.30;;;16.48;;
66421;SDS011;53228;51.380;0.098;2023-09-08T13:16:48;27.45;;;18.80;;
66421;SDS011;53228;51.380;0.098;2023-09-08T13:19:16;26.27;;;18.85;;
66421;SDS011;53228;51.380;0.098;2023-09-08T13:21:43;23.50;;;19.08;;
66421;SDS011;53228;51.380;0.098;2023-09-08T13:24:11;24.50;;;17.35;;
66421;SDS011;53228;51.380;0.098;2023-09-08T13:26:39;22.52;;;18.05;;
66421;SDS011;53228;51.380;0.098;2023-09-08T13:29:08;25.52;;;18.40;;
66421;SDS011;53228;51.380;0.098;2023-09-08T13:31:35;25.88;;;18.70;;
66421;SDS011;53228;51.380;0.098;2023-09-08T13:34:03;29.23;;;20.73;;
66421;SDS011;53228;51.380;0.098;2023-09-08T13:36:31;25.00;;;18.40;;
66421;SDS011;53228;51.380;0.098;2023-09-08T13:38:58;25.15;;;18.70;;
66421;SDS011;53228;51.380;0.098;2023-09-08T13:41:44;22.45;;;17.08;;
66421;SDS011;53228;51.380;0.098;2023-09-08T13:44:11;26.17;;;16.70;;
66421;SDS011;53228;51.380;0.098;2023-09-08T13:46:39;23.67;;;16.42;;
66421;SDS011;53228;51.380;0.098;2023-09-08T13:49:07;23.88;;;15.77;;
66421;SDS011;53228;51.380;0.098;2023-09-08T13:51:36;21.15;;;15.15;;
66421;SDS011;53228;51.380;0.098;2023-09-08T13:54:05;19.65;;;15.27;;
66421;SDS011;53228;51.380;0.098;2023-09-08T13:59:02;25.00;;;15.60;;
66421;SDS011;53228;51.380;0.098;2023-09-08T14:01:33;20.25;;;15.82;;
66421;SDS011;53228;51.380;0.098;2023-09-08T14:04:07;26.85;;;19.02;;
66421;SDS011;53228;51.380;0.098;2023-09-08T14:06:37;27.88;;;19.55;;
66421;SDS011;53228;51.380;0.098;2023-09-08T14:09:07;26.50;;;18.05;;
66421;SDS011;53228;51.380;0.098;2023-09-08T14:11:55;25.67;;;17.25;;
66421;SDS011;53228;51.380;0.098;2023-09-08T14:14:42;24.00;;;18.17;;
66421;SDS011;53228;51.380;0.098;2023-09-08T14:17:10;26.05;;;17.83;;
66421;SDS011;53228;51.380;0.098;2023-09-08T14:19:38;24.50;;;16.98;;
66421;SDS011;53228;51.380;0.098;2023-09-08T14:22:05;22.75;;;16.13;;
66421;SDS011;53228;51.380;0.098;2023-09-08T14:24:33;21.27;;;15.90;;
66421;SDS011;53228;51.380;0.098;2023-09-08T14:27:00;20.10;;;15.05;;
66421;SDS011;53228;51.380;0.098;2023-09-08T14:29:29;23.23;;;15.23;;
66421;SDS011;53228;51.380;0.098;2023-09-08T14:31:57;23.70;;;16.45;;
66421;SDS011;53228;51.380;0.098;2023-09-08T14:34:24;21.13;;;17.30;;
66421;SDS011;53228;51.380;0.098;2023-09-08T14:36:52;21.35;;;16.08;;
66421;SDS011;53228;51.380;0.098;2023-09-08T14:39:20;23.27;;;14.68;;
66421;SDS011;53228;51.380;0.098;2023-09-08T14:41:48;25.00;;;13.05;;
66421;SDS011;53228;51.380;0.098;2023-09-08T14:44:20;19.00;;;12.15;;
66421;SDS011;53228;51.380;0.098;2023-09-08T14:46:50;17.75;;;12.82;;